Time;durP1;ratioP1;P1;durP2;ratioP2;P2;SDS_P1;SDS_P2;PMS_P1;PMS_P2;Temp;Humidity;BMP_temperature;BMP_pressure;BME280_temperature;BME280_humidity;BME280_pressure;Samples;Min_cycle;Max_cycle;Signal;HPM_P1;HPM_P2
2022/09/01 00:02:26;;;;;;;3.57;1.60;;;;;;;21.47;100.00;101985.09;5074683;28;20025;-53
2022/09/01 00:04:57;;;;;;;1.73;1.03;;;;;;;21.38;100.00;101983.78;5078765;28;20037;-52
2022/09/01 00:07:24;;;;;;;3.50;1.30;;;;;;;21.15;100.00;101983.63;5077446;28;20032;-53
2022/09/01 00:09:50;;;;;;;9.53;1.77;;;;;;;21.15;100.00;101980.06;5079593;28;20032;-54
2022/09/01 00:12:16;;;;;;;2.42;1.20;;;;;;;21.54;100.00;101977.59;5076449;28;20043;-54
2022/09/01 00:14:42;;;;;;;2.70;1.30;;;;;;;21.40;100.00;101977.06;5075833;28;20041;-54
2022/09/01 00:17:10;;;;;;;3.60;1.50;;;;;;;21.43;100.00;101976.56;5077693;28;20301;-55
2022/09/01 00:19:36;;;;;;;4.83;1.40;;;;;;;21.23;100.00;101978.88;5074404;28;20031;-56
2022/09/01 00:22:03;;;;;;;1.83;1.30;;;;;;;21.43;100.00;101978.44;5079248;28;20274;-55
2022/09/01 00:24:29;;;;;;;4.10;1.50;;;;;;;21.33;100.00;101971.75;5072718;28;20064;-54
2022/09/01 00:26:55;;;;;;;4.50;1.57;;;;;;;21.40;100.00;101979.78;5079225;28;20284;-56
2022/09/01 00:29:22;;;;;;;3.55;1.48;;;;;;;21.45;100.00;101971.72;5078228;28;20278;-54
2022/09/01 00:31:48;;;;;;;2.70;1.60;;;;;;;21.27;100.00;101977.31;5075430;28;20033;-53
2022/09/01 00:34:14;;;;;;;2.80;1.20;;;;;;;21.32;100.00;101975.53;5079496;28;20296;-55
2022/09/01 00:36:40;;;;;;;2.47;1.23;;;;;;;21.22;100.00;101971.78;5075501;28;20028;-52
2022/09/01 00:39:06;;;;;;;2.88;1.45;;;;;;;21.20;100.00;101969.28;5075567;28;20032;-52
2022/09/01 00:41:35;;;;;;;6.35;1.40;;;;;;;21.29;100.00;101965.13;5078608;28;20024;-54
2022/09/01 00:44:05;;;;;;;5.50;1.90;;;;;;;21.33;100.00;101966.31;5077645;28;20048;-51
2022/09/01 00:46:38;;;;;;;2.00;1.30;;;;;;;21.24;100.00;101965.03;5077605;28;20262;-54
2022/09/01 00:49:30;;;;;;;2.87;1.30;;;;;;;21.21;100.00;101960.03;5077711;28;20285;-52
2022/09/01 00:52:14;;;;;;;3.00;1.63;;;;;;;21.35;100.00;101966.06;5077230;28;20286;-55
2022/09/01 00:54:44;;;;;;;5.03;1.50;;;;;;;20.93;100.00;101961.63;5074144;28;20276;-58
2022/09/01 00:57:11;;;;;;;5.27;1.80;;;;;;;21.18;100.00;101964.09;5075180;28;20274;-52
2022/09/01 00:59:44;;;;;;;5.07;1.50;;;;;;;21.03;100.00;101964.59;5079268;28;20276;-55
2022/09/01 01:02:10;;;;;;;4.70;1.40;;;;;;;21.00;100.00;101962.34;5081442;28;20263;-53
2022/09/01 01:04:36;;;;;;;8.13;1.50;;;;;;;21.13;100.00;101957.72;5079798;28;20281;-55
2022/09/01 01:07:01;;;;;;;6.15;1.27;;;;;;;21.15;100.00;101955.56;5080542;28;20257;-49
2022/09/01 01:09:34;;;;;;;6.53;1.67;;;;;;;21.01;100.00;101953.13;5078407;28;20043;-52
2022/09/01 01:12:03;;;;;;;4.43;2.00;;;;;;;20.77;100.00;101955.84;5078614;28;20029;-54
2022/09/01 01:14:31;;;;;;;11.57;2.00;;;;;;;20.89;100.00;101949.59;5080296;28;20304;-53
2022/09/01 01:16:58;;;;;;;3.63;1.10;;;;;;;20.84;100.00;101949.47;5078267;28;20274;-55
2022/09/01 01:25:43;;;;;;;3.83;1.40;;;;;;;20.93;100.00;101953.47;5077433;28;20273;-55
2022/09/01 01:28:18;;;;;;;5.67;1.50;;;;;;;20.91;100.00;101951.03;5080710;28;20282;-54
2022/09/01 01:31:12;;;;;;;4.70;1.40;;;;;;;20.78;100.00;101945.78;5081313;28;20273;-55
2022/09/01 01:33:48;;;;;;;3.43;1.50;;;;;;;20.88;100.00;101948.78;5079304;28;20329;-52
2022/09/01 01:36:24;;;;;;;3.47;1.60;;;;;;;20.62;100.00;101950.03;5079165;28;20325;-55
2022/09/01 01:38:52;;;;;;;7.03;1.88;;;;;;;20.77;100.00;101950.41;5080183;28;20273;-54
2022/09/01 01:41:18;;;;;;;4.83;2.07;;;;;;;20.83;100.00;101955.97;5082040;28;20032;-56
2022/09/01 01:43:47;;;;;;;6.17;1.60;;;;;;;20.68;100.00;101953.72;5078272;28;20277;-53
2022/09/01 01:46:13;;;;;;;5.53;1.80;;;;;;;20.62;100.00;101945.41;5079397;28;20274;-55
2022/09/01 01:48:41;;;;;;;7.70;1.75;;;;;;;20.62;100.00;101944.63;5082472;28;20277;-54
2022/09/01 01:51:08;;;;;;;5.20;1.90;;;;;;;20.59;100.00;101956.78;5078601;28;20043;-53
2022/09/01 01:53:33;;;;;;;6.73;1.80;;;;;;;20.62;100.00;101953.56;5081426;28;20277;-52
2022/09/01 01:56:01;;;;;;;;;;;;;;;20.46;100.00;101952.41;5082355;28;20270;-54
2022/09/01 01:58:33;;;;;;;2.80;1.60;;;;;;;20.62;100.00;101953.56;5077510;28;19938;-52
2022/09/01 02:01:02;;;;;;;5.47;1.90;;;;;;;20.40;100.00;101961.50;5081814;28;20273;-52
2022/09/01 02:03:37;;;;;;;2.63;1.40;;;;;;;20.45;100.00;101955.38;5079371;28;20292;-53
2022/09/01 02:06:08;;;;;;;4.43;1.40;;;;;;;20.72;100.00;101958.44;5077739;28;20270;-55
2022/09/01 02:08:36;;;;;;;7.33;1.80;;;;;;;20.70;100.00;101957.84;5080397;28;20324;-53
2022/09/01 02:11:04;;;;;;;5.20;1.90;;;;;;;20.56;100.00;101951.81;5077820;28;20269;-52
2022/09/01 02:13:30;;;;;;;3.37;1.57;;;;;;;20.64;100.00;101953.34;5081921;28;20304;-59
2022/09/01 02:16:03;;;;;;;5.95;1.98;;;;;;;20.61;100.00;101948.41;5078255;28;20265;-55
2022/09/01 02:18:35;;;;;;;4.60;1.87;;;;;;;20.65;100.00;101956.91;5079281;28;20044;-55
2022/09/01 02:21:08;;;;;;;3.60;1.23;;;;;;;20.73;100.00;101956.56;5078843;28;20266;-53
2022/09/01 02:23:35;;;;;;;3.20;1.57;;;;;;;20.64;100.00;101961.50;5080406;28;20262;-54
2022/09/01 02:26:01;;;;;;;;;;;;;;;20.57;100.00;101960.81;5080444;28;20270;-52
2022/09/01 02:28:30;;;;;;;5.07;1.70;;;;;;;20.51;100.00;101959.00;5080726;28;19912;-54
2022/09/01 02:30:58;;;;;;;6.73;2.23;;;;;;;20.61;100.00;101959.25;5079627;28;20269;-55
2022/09/01 02:33:27;;;;;;;8.00;1.93;;;;;;;20.68;100.00;101967.31;5078368;28;20325;-51
2022/09/01 02:36:02;;;;;;;3.20;1.40;;;;;;;20.46;100.00;101952.41;5079115;28;20274;-53
2022/09/01 02:38:28;;;;;;;3.43;1.43;;;;;;;20.52;100.00;101961.50;5078650;28;20270;-55
2022/09/01 02:40:57;;;;;;;3.73;1.50;;;;;;;20.49;100.00;101959.25;5078682;28;20278;-52
2022/09/01 02:43:27;;;;;;;7.80;1.80;;;;;;;20.68;100.00;101954.53;5078194;28;20285;-53
2022/09/01 02:45:58;;;;;;;7.83;1.90;;;;;;;20.57;100.00;101948.03;5078679;28;20273;-53
2022/09/01 02:48:31;;;;;;;2.73;1.50;;;;;;;20.81;100.00;101948.06;5075753;28;20291;-53
2022/09/01 02:50:58;;;;;;;4.40;1.30;;;;;;;20.63;100.00;101946.25;5076961;28;20336;-54
2022/09/01 02:53:24;;;;;;;3.93;1.30;;;;;;;20.43;100.00;101950.16;5078120;28;20290;-51
2022/09/01 02:55:50;;;;;;;3.03;1.40;;;;;;;20.49;100.00;101949.19;5081414;28;20333;-52
2022/09/01 02:58:17;;;;;;;3.67;1.70;;;;;;;20.52;100.00;101945.19;5075790;28;20036;-54
2022/09/01 03:00:45;;;;;;;6.10;1.30;;;;;;;20.46;100.00;101944.25;5077982;28;20024;-53
2022/09/01 03:03:11;;;;;;;3.50;1.70;;;;;;;20.49;100.00;101946.50;5078922;28;20286;-50
2022/09/01 03:05:38;;;;;;;3.03;1.60;;;;;;;20.55;100.00;101936.56;5079007;28;20266;-54
2022/09/01 03:08:09;;;;;;;2.13;1.30;;;;;;;20.51;100.00;101937.28;5079912;28;20269;-53
2022/09/01 03:10:40;;;;;;;3.20;1.30;;;;;;;20.39;100.00;101946.25;5074935;28;20266;-55
2022/09/01 03:13:13;;;;;;;4.93;1.33;;;;;;;20.40;100.00;101941.63;5079621;28;20285;-54
2022/09/01 03:15:40;;;;;;;4.47;1.40;;;;;;;20.18;100.00;101942.19;5076841;28;20273;-56
2022/09/01 03:18:09;;;;;;;3.50;1.40;;;;;;;20.10;100.00;101939.81;5080329;28;20333;-58
2022/09/01 03:20:38;;;;;;;2.50;1.40;;;;;;;20.09;100.00;101933.59;5079010;28;20262;-53
2022/09/01 03:23:09;;;;;;;3.53;1.30;;;;;;;20.28;100.00;101942.47;5078191;28;20298;-55
2022/09/01 03:25:36;;;;;;;2.73;1.43;;;;;;;20.09;100.00;101936.31;5077766;28;20299;-56
2022/09/01 03:28:03;;;;;;;9.13;1.83;;;;;;;20.12;100.00;101935.81;5078461;28;20266;-52
2022/09/01 03:30:32;;;;;;;3.20;1.30;;;;;;;20.09;100.00;101935.47;5075155;28;20088;-52
2022/09/01 03:33:00;;;;;;;7.77;1.43;;;;;;;20.24;100.00;101940.44;5077808;28;20350;-55
2022/09/01 03:35:27;;;;;;;3.43;1.87;;;;;;;20.18;100.00;101931.31;5074115;28;20269;-50
2022/09/01 03:37:57;;;;;;;4.37;1.30;;;;;;;20.28;100.00;101944.34;5074336;28;20281;-53
2022/09/01 03:40:26;;;;;;;5.83;1.30;;;;;;;20.16;100.00;101937.00;5077301;28;20286;-53
2022/09/01 03:42:54;;;;;;;1.83;1.30;;;;;;;20.12;100.00;101937.69;5078427;28;20284;-54
2022/09/01 03:45:24;;;;;;;9.00;2.47;;;;;;;20.22;100.00;101932.53;5073775;28;20272;-55
2022/09/01 03:47:54;;;;;;;4.73;1.80;;;;;;;20.13;100.00;101937.47;5078773;28;20270;-55
2022/09/01 03:50:23;;;;;;;3.53;1.60;;;;;;;20.02;100.00;101935.56;5091574;28;20274;-52
2022/09/01 03:52:52;;;;;;;6.43;2.30;;;;;;;19.98;100.00;101931.66;5072230;28;20286;-57
2022/09/01 03:55:26;;;;;;;5.30;1.87;;;;;;;19.93;100.00;101937.78;5078770;28;20308;-53
2022/09/01 03:58:05;;;;;;;8.03;2.90;;;;;;;19.89;100.00;101933.84;5078727;28;20305;-56
2022/09/01 04:00:39;;;;;;;27.23;12.70;;;;;;;19.98;100.00;101937.09;5077430;28;20275;-55
2022/09/01 04:03:07;;;;;;;17.27;7.40;;;;;;;20.02;100.00;101930.13;5082336;28;20337;-57
2022/09/01 04:05:36;;;;;;;4.97;2.20;;;;;;;20.06;100.00;101936.75;5080606;28;20333;-55
2022/09/01 04:08:05;;;;;;;13.50;5.73;;;;;;;20.20;100.00;101938.19;5079977;28;20258;-55
2022/09/01 04:10:34;;;;;;;7.73;3.63;;;;;;;20.15;100.00;101929.94;5075269;28;20262;-53
2022/09/01 04:13:01;;;;;;;12.63;4.67;;;;;;;19.86;100.00;101927.00;5090577;28;20289;-56
2022/09/01 04:15:27;;;;;;;15.37;6.53;;;;;;;19.81;100.00;101934.19;5069422;28;20309;-53
2022/09/01 04:18:08;;;;;;;13.70;5.97;;;;;;;19.85;100.00;101919.91;5072706;28;20286;-55
2022/09/01 04:20:47;;;;;;;5.97;1.90;;;;;;;19.74;100.00;101920.69;5071795;28;20334;-55
2022/09/01 04:23:24;;;;;;;23.80;9.80;;;;;;;19.85;100.00;101914.50;5078832;28;20269;-55
2022/09/01 04:25:52;;;;;;;13.27;6.23;;;;;;;19.90;100.00;101925.47;5073497;28;20345;-56
2022/09/01 04:28:25;;;;;;;18.27;6.73;;;;;;;19.90;100.00;101927.34;5075601;28;20265;-56
2022/09/01 04:30:54;;;;;;;16.37;6.53;;;;;;;19.82;100.00;101930.41;5073999;28;20303;-55
2022/09/01 04:33:24;;;;;;;7.97;2.77;;;;;;;19.59;100.00;101938.22;5076834;28;20278;-52
2022/09/01 04:35:53;;;;;;;14.27;3.47;;;;;;;19.60;100.00;101934.44;5079907;28;20322;-54
2022/09/01 04:38:20;;;;;;;3.83;2.03;;;;;;;19.55;100.00;101930.78;5077747;28;20258;-56
2022/09/01 04:40:48;;;;;;;4.33;1.77;;;;;;;19.46;100.00;101932.97;5082204;28;20263;-53
2022/09/01 04:43:15;;;;;;;12.27;2.70;;;;;;;19.49;100.00;101927.94;5066348;28;20748;-56
2022/09/01 04:45:41;;;;;;;3.95;2.00;;;;;;;19.33;100.00;101929.38;5082157;28;20344;-56
2022/09/01 04:48:08;;;;;;;11.05;2.97;;;;;;;19.34;100.00;101933.72;5073659;28;20063;-54
2022/09/01 04:50:35;;;;;;;3.78;2.13;;;;;;;19.11;100.00;101936.31;5077130;28;20048;-55
2022/09/01 04:53:12;;;;;;;4.97;1.80;;;;;;;19.16;100.00;101936.47;5075963;28;20104;-52
2022/09/01 04:55:44;;;;;;;13.93;6.30;;;;;;;19.33;100.00;101926.66;5072153;28;20271;-53
2022/09/01 04:58:18;;;;;;;2.87;1.50;;;;;;;19.19;100.00;101931.41;5075250;28;20271;-51
2022/09/01 05:00:47;;;;;;;8.33;3.57;;;;;;;19.28;100.00;101934.66;5075612;28;20298;-54
2022/09/01 05:03:15;;;;;;;4.40;1.57;;;;;;;19.13;100.00;101936.91;5079479;28;20270;-52
2022/09/01 05:06:00;;;;;;;11.53;3.63;;;;;;;19.32;100.00;101926.91;5077958;28;20282;-52
2022/09/01 05:08:27;;;;;;;3.90;2.10;;;;;;;19.17;100.00;101941.66;5077160;28;20249;-57
2022/09/01 05:10:55;;;;;;;7.23;1.73;;;;;;;19.16;100.00;101944.63;5072105;28;20271;-55
2022/09/01 05:13:33;;;;;;;5.87;2.30;;;;;;;19.28;100.00;101936.56;5080071;28;20296;-55
2022/09/01 05:16:04;;;;;;;6.07;1.90;;;;;;;19.35;100.00;101948.13;5076940;28;20294;-55
2022/09/01 05:18:31;;;;;;;9.63;2.83;;;;;;;19.25;100.00;101943.25;5081792;28;20273;-53
2022/09/01 05:20:56;;;;;;;4.07;2.28;;;;;;;19.26;100.00;101954.91;5076443;28;20300;-54
2022/09/01 05:23:25;;;;;;;3.63;1.73;;;;;;;19.28;100.00;101950.91;5084910;28;20033;-55
2022/09/01 05:25:53;;;;;;;6.03;2.50;;;;;;;19.32;100.00;101948.59;5080117;28;20035;-57
2022/09/01 05:28:24;;;;;;;5.33;1.80;;;;;;;19.34;100.00;101950.00;5081759;28;20313;-53
2022/09/01 05:30:52;;;;;;;3.97;1.77;;;;;;;19.15;100.00;101954.63;5076845;28;20266;-58
2022/09/01 05:33:20;;;;;;;5.40;2.33;;;;;;;19.29;100.00;101949.88;5072346;28;20324;-54
2022/09/01 05:35:55;;;;;;;4.80;1.77;;;;;;;19.26;100.00;101955.75;5068545;28;20271;-55
2022/09/01 05:38:21;;;;;;;5.80;1.90;;;;;;;19.41;100.00;101944.50;5070744;28;20273;-55
2022/09/01 05:41:00;;;;;;;11.97;2.20;;;;;;;19.20;100.00;101945.81;5068404;28;20271;-55
2022/09/01 05:43:27;;;;;;;4.23;1.80;;;;;;;19.28;100.00;101948.22;5067609;28;20284;-55
2022/09/01 05:45:54;;;;;;;4.37;2.10;;;;;;;19.46;100.00;101944.63;5074758;28;20273;-56
2022/09/01 05:48:22;;;;;;;7.07;2.03;;;;;;;19.51;100.00;101945.88;5077940;28;20286;-57
2022/09/01 05:50:51;;;;;;;4.33;1.77;;;;;;;19.33;100.00;101951.06;5076465;28;20265;-56
2022/09/01 05:53:16;;;;;;;4.53;1.83;;;;;;;19.48;100.00;101939.81;5080422;28;20278;-57
2022/09/01 05:55:46;;;;;;;3.47;1.73;;;;;;;19.48;100.00;101949.84;5095572;28;20301;-51
2022/09/01 05:58:15;;;;;;;7.37;1.73;;;;;;;19.41;100.00;101957.25;5079055;28;20266;-56
2022/09/01 06:00:43;;;;;;;3.97;1.63;;;;;;;19.33;100.00;101951.06;5082357;28;20295;-55
2022/09/01 06:03:10;;;;;;;3.63;1.77;;;;;;;19.45;100.00;101956.53;5071858;28;20262;-55
2022/09/01 06:05:39;;;;;;;4.10;2.13;;;;;;;19.67;100.00;101958.78;5073433;28;20292;-57
2022/09/01 06:08:09;;;;;;;4.43;1.50;;;;;;;19.71;100.00;101954.53;5076381;28;20264;-56
2022/09/01 06:10:38;;;;;;;6.03;2.00;;;;;;;19.62;100.00;101954.06;5061824;28;20293;-56
2022/09/01 06:13:06;;;;;;;6.37;1.90;;;;;;;19.66;100.00;101961.72;5077118;28;20285;-57
2022/09/01 06:15:32;;;;;;;3.15;1.60;;;;;;;19.62;100.00;101959.47;5070936;28;20391;-58
2022/09/01 06:17:59;;;;;;;5.27;2.00;;;;;;;19.69;100.00;101958.56;5076052;28;20040;-57
2022/09/01 06:20:28;;;;;;;4.97;1.93;;;;;;;19.73;100.00;101965.19;5073069;28;20262;-58
2022/09/01 06:22:54;;;;;;;3.47;1.73;;;;;;;19.65;100.00;101960.88;5086092;28;20301;-56
2022/09/01 06:25:20;;;;;;;8.55;2.50;;;;;;;19.74;100.00;101954.09;5075272;28;20039;-57
2022/09/01 06:27:47;;;;;;;7.25;2.10;;;;;;;19.82;100.00;101958.34;5075125;28;20043;-57
2022/09/01 06:30:19;;;;;;;5.63;1.80;;;;;;;19.86;100.00;101965.00;5072348;28;20119;-51
2022/09/01 06:32:52;;;;;;;5.67;1.87;;;;;;;19.80;100.00;101959.66;5076751;28;20281;-55
2022/09/01 06:35:20;;;;;;;3.17;1.40;;;;;;;20.10;100.00;101964.25;5075673;28;20280;-57
2022/09/01 06:37:47;;;;;;;4.23;1.90;;;;;;;20.32;100.00;101957.22;5077457;28;20285;-56
2022/09/01 06:40:29;;;;;;;3.90;1.40;;;;;;;20.35;100.00;101972.25;5077587;28;20265;-53
2022/09/01 06:42:55;;;;;;;3.55;1.77;;;;;;;20.30;100.00;101969.41;5075578;28;20319;-56
2022/09/01 06:45:23;;;;;;;6.60;1.73;;;;;;;20.45;100.00;101972.47;5078354;28;20044;-55
2022/09/01 06:47:51;;;;;;;96.73;49.33;;;;;;;20.59;100.00;101978.50;5073607;28;20274;-54
2022/09/01 06:50:20;;;;;;;70.23;34.30;;;;;;;20.55;100.00;101976.53;5078796;28;20293;-51
2022/09/01 06:53:02;;;;;;;41.60;20.73;;;;;;;20.79;100.00;101977.34;5076644;28;20273;-55
2022/09/01 06:55:32;;;;;;;19.00;6.63;;;;;;;20.90;100.00;101978.44;5073547;28;20301;-55
2022/09/01 06:57:58;;;;;;;25.07;11.43;;;;;;;21.11;100.00;101984.31;5090121;28;20091;-55
2022/09/01 07:00:25;;;;;;;19.83;9.07;;;;;;;21.24;100.00;101984.06;5066345;28;20037;-57
2022/09/01 07:02:54;;;;;;;11.07;3.30;;;;;;;21.53;100.00;101977.81;5072285;28;20037;-53
2022/09/01 07:05:40;;;;;;;7.18;3.72;;;;;;;21.71;100.00;101985.03;5079862;28;20068;-56
2022/09/01 07:08:09;;;;;;;9.13;3.17;;;;;;;21.80;100.00;101980.00;5075456;28;20029;-54
2022/09/01 07:10:57;;;;;;;9.43;3.37;;;;;;;21.87;100.00;101980.69;5077796;28;20094;-51
2022/09/01 07:13:24;;;;;;;5.13;1.92;;;;;;;22.05;100.00;101983.22;5076582;28;20033;-56
2022/09/01 07:15:52;;;;;;;44.07;20.60;;;;;;;21.97;100.00;101990.94;5081589;28;20035;-55
2022/09/01 07:18:21;;;;;;;100.47;52.03;;;;;;;21.90;100.00;101989.19;5074501;28;20052;-56
2022/09/01 07:20:47;;;;;;;36.70;17.30;;;;;;;21.83;100.00;101999.41;5075897;28;20051;-53
2022/09/01 07:23:18;;;;;;;17.50;8.27;;;;;;;21.64;100.00;101993.31;5074595;28;20020;-53
2022/09/01 07:25:47;;;;;;;23.50;11.30;;;;;;;21.72;100.00;102000.28;5072167;28;20055;-53
2022/09/01 07:28:22;;;;;;;8.90;4.20;;;;;;;21.74;100.00;101992.72;5081024;28;20120;-56
2022/09/01 07:30:51;;;;;;;10.60;5.80;;;;;;;21.75;100.00;101991.63;5081400;28;20037;-56
2022/09/01 07:33:23;;;;;;;8.53;4.00;;;;;;;21.82;100.00;101997.75;5076465;28;20044;-55
2022/09/01 07:35:54;;;;;;;26.20;10.70;;;;;;;21.97;100.00;101993.69;5078932;28;20032;-56
2022/09/01 07:38:22;;;;;;;267.70;137.23;;;;;;;22.01;100.00;101997.56;5081558;28;20037;-56
2022/09/01 07:40:48;;;;;;;49.03;23.70;;;;;;;22.06;100.00;101998.47;5081050;28;20025;-52
2022/09/01 07:43:43;;;;;;;21.63;11.47;;;;;;;22.06;100.00;101994.91;5072195;28;20185;-57
2022/09/01 07:46:31;;;;;;;152.57;76.00;;;;;;;22.00;100.00;101991.28;5074394;28;20033;-52
2022/09/01 07:48:58;;;;;;;257.53;134.57;;;;;;;22.04;100.00;101997.06;5070832;28;20037;-54
2022/09/01 07:51:25;;;;;;;67.23;32.73;;;;;;;21.98;100.00;101990.69;5075161;28;20115;-55
2022/09/01 07:53:51;;;;;;;25.43;12.50;;;;;;;22.10;100.00;101993.34;5071693;28;20140;-55
2022/09/01 07:56:20;;;;;;;12.60;6.23;;;;;;;22.06;100.00;101994.91;5077604;28;20033;-52
2022/09/01 07:58:49;;;;;;;14.67;6.27;;;;;;;22.23;100.00;101985.94;5071147;28;20124;-56
2022/09/01 08:01:23;;;;;;;8.30;3.77;;;;;;;22.35;100.00;101992.13;5074471;28;20025;-56
2022/09/01 08:03:52;;;;;;;7.73;2.87;;;;;;;22.42;100.00;101983.81;5072587;28;20055;-55
2022/09/01 08:06:21;;;;;;;3.33;1.93;;;;;;;22.62;100.00;101984.16;5073452;28;20041;-56
2022/09/01 08:08:49;;;;;;;13.17;2.53;;;;;;;22.71;100.00;101998.19;5076540;28;20396;-55
2022/09/01 08:11:24;;;;;;;4.37;1.70;;;;;;;22.84;100.00;101997.03;5074083;28;20446;-55
2022/09/01 08:13:53;;;;;;;3.83;1.10;;;;;;;22.69;100.00;101996.78;5072741;28;20032;-54
2022/09/01 08:16:20;;;;;;;4.63;1.53;;;;;;;22.74;100.00;101994.16;5077144;28;20029;-55
2022/09/01 08:18:47;;;;;;;4.30;1.60;;;;;;;22.82;100.00;101998.34;5079204;28;20032;-56
2022/09/01 08:21:23;;;;;;;3.97;1.07;;;;;;;22.87;100.00;101998.44;5079029;28;20029;-54
2022/09/01 08:24:15;;;;;;;2.90;1.47;;;;;;;22.92;100.00;102002.03;5073258;28;20035;-54
2022/09/01 08:26:40;;;;;;;3.92;1.60;;;;;;;23.11;100.00;102003.66;5076286;28;20029;-55
2022/09/01 08:29:07;;;;;;;;;;;;;;;23.07;100.00;102008.78;5071941;28;20068;-56
2022/09/01 08:31:39;;;;;;;7.23;1.27;;;;;;;23.19;100.00;102012.25;5071607;28;19917;-55
2022/09/01 08:34:05;;;;;;;5.22;2.00;;;;;;;23.21;100.00;102003.78;5075529;28;20033;-55
2022/09/01 08:36:32;;;;;;;6.13;1.43;;;;;;;23.36;100.00;102003.19;5061932;28;20522;-53
2022/09/01 08:38:58;;;;;;;8.07;1.70;;;;;;;23.30;100.00;102006.94;5071921;28;20041;-55
2022/09/01 08:41:36;;;;;;;7.93;1.30;;;;;;;23.46;100.00;102007.94;5074030;28;20057;-53
2022/09/01 08:44:05;;;;;;;4.77;1.60;;;;;;;23.59;99.47;102004.84;5073270;28;20071;-55
2022/09/01 08:46:34;;;;;;;5.40;1.70;;;;;;;23.61;99.79;102005.41;5071615;28;20509;-56
2022/09/01 08:49:11;;;;;;;10.33;1.20;;;;;;;23.76;97.98;102003.94;5075278;28;20036;-54
2022/09/01 08:52:21;;;;;;;3.33;1.43;;;;;;;23.72;98.04;102009.09;5077047;28;20055;-53
2022/09/01 08:55:06;;;;;;;4.97;1.13;;;;;;;23.88;95.23;102012.81;5073320;28;20035;-53
2022/09/01 08:57:38;;;;;;;8.93;1.20;;;;;;;23.93;95.23;102014.78;5075405;28;20060;-57
2022/09/01 09:00:23;;;;;;;25.50;13.23;;;;;;;24.22;92.74;102002.75;5079512;28;20038;-53
2022/09/01 09:03:14;;;;;;;41.10;21.30;;;;;;;24.39;91.24;102003.44;5073362;28;20075;-53
2022/09/01 09:06:14;;;;;;;24.00;11.80;;;;;;;24.65;88.95;101992.69;5075336;28;20082;-55
2022/09/01 09:08:53;;;;;;;24.77;7.73;;;;;;;25.04;85.46;102002.56;5076656;28;20028;-55
2022/09/01 09:12:00;;;;;;;14.77;4.70;;;;;;;25.60;80.65;102002.00;5079802;28;20036;-53
2022/09/01 09:14:36;;;;;;;18.03;3.37;;;;;;;26.10;77.46;102006.19;5072307;28;20035;-55
2022/09/01 09:17:03;;;;;;;4.00;2.17;;;;;;;26.49;74.00;101998.25;5067387;28;20032;-55
2022/09/01 09:19:35;;;;;;;6.50;1.33;;;;;;;26.97;70.55;102004.50;5068598;28;20036;-54
2022/09/01 09:22:05;;;;;;;5.40;1.27;;;;;;;27.55;67.17;102001.28;5074878;28;20044;-56
2022/09/01 09:24:46;;;;;;;5.97;1.60;;;;;;;27.87;63.92;102005.47;5078049;28;20033;-51
2022/09/01 09:27:30;;;;;;;6.90;1.35;;;;;;;28.18;61.15;101999.78;5077293;28;20029;-57
2022/09/01 09:30:03;;;;;;;5.82;0.90;;;;;;;28.57;59.87;101999.97;5077922;28;20033;-53
2022/09/01 09:33:02;;;;;;;3.97;1.00;;;;;;;28.93;55.90;102005.13;5077378;28;20029;-58
2022/09/01 09:35:32;;;;;;;4.60;1.02;;;;;;;28.83;56.59;102002.47;5076158;28;20063;-56
2022/09/01 09:38:27;;;;;;;4.20;0.80;;;;;;;29.48;52.12;101999.25;5075829;28;20028;-54
2022/09/01 09:41:19;;;;;;;2.50;0.88;;;;;;;29.97;50.32;101998.25;5074047;28;20029;-54
2022/09/01 09:43:57;;;;;;;3.95;0.82;;;;;;;30.55;49.16;102005.28;5077655;28;20107;-54
2022/09/01 09:46:31;;;;;;;4.43;1.05;;;;;;;30.81;47.51;102002.09;5074563;28;20032;-57
2022/09/01 09:49:23;;;;;;;1.75;1.10;;;;;;;31.52;45.33;102009.19;5069688;28;20036;-56
2022/09/01 09:52:00;;;;;;;4.88;1.42;;;;;;;31.73;44.29;102012.31;5076435;28;20033;-54
2022/09/01 09:54:29;;;;;;;1.55;0.95;;;;;;;31.32;44.69;102000.22;5079910;28;20067;-60
2022/09/01 09:57:10;;;;;;;2.47;0.70;;;;;;;31.73;43.43;102005.94;5077405;28;20043;-59
2022/09/01 09:59:54;;;;;;;2.80;1.30;;;;;;;31.97;42.63;102007.63;5074769;28;20055;-59
2022/09/01 10:02:24;;;;;;;3.40;0.88;;;;;;;32.49;41.75;102000.81;5078717;28;20029;-55
2022/09/01 10:04:50;;;;;;;1.95;0.70;;;;;;;33.00;41.65;101988.34;5077511;28;20089;-59
2022/09/01 10:07:27;;;;;;;2.90;0.98;;;;;;;33.31;40.52;101987.41;5080784;28;20033;-60
2022/09/01 10:09:56;;;;;;;4.53;0.80;;;;;;;33.40;39.94;101981.03;5080962;28;20044;-58
2022/09/01 10:12:26;;;;;;;2.85;0.90;;;;;;;33.52;38.50;101992.34;5078131;28;20032;-59
2022/09/01 10:14:57;;;;;;;2.75;1.10;;;;;;;33.87;38.02;101991.50;5076924;28;20042;-58
2022/09/01 10:17:41;;;;;;;4.22;1.00;;;;;;;34.10;36.87;101986.59;5071941;28;20100;-56
2022/09/01 10:20:21;;;;;;;3.47;0.95;;;;;;;34.21;36.51;101980.72;5071920;28;20117;-59
2022/09/01 10:22:47;;;;;;;5.22;1.25;;;;;;;34.68;35.13;101991.81;5080092;28;20033;-58
2022/09/01 10:25:21;;;;;;;4.30;0.93;;;;;;;34.65;34.96;101995.28;5076516;28;20058;-57
2022/09/01 10:28:07;;;;;;;6.03;0.68;;;;;;;34.91;34.79;101976.81;5076754;28;20054;-57
2022/09/01 10:30:35;;;;;;;4.03;0.88;;;;;;;34.99;35.02;101987.88;5078138;28;20037;-56
2022/09/01 10:33:03;;;;;;;2.90;0.88;;;;;;;35.15;33.88;101988.13;5074398;28;20041;-60
2022/09/01 10:35:40;;;;;;;4.32;0.95;;;;;;;35.59;33.71;101979.50;5078229;28;20032;-58
2022/09/01 10:38:15;;;;;;;2.83;0.80;;;;;;;35.59;33.92;101985.06;5075042;28;20033;-60
2022/09/01 10:40:49;;;;;;;2.28;0.90;;;;;;;35.57;32.75;101984.59;5075647;28;20101;-60
2022/09/01 10:43:40;;;;;;;2.13;0.82;;;;;;;36.08;32.08;101972.50;5073626;28;20074;-60
2022/09/01 10:46:10;;;;;;;4.25;0.85;;;;;;;36.15;31.28;101975.50;5072865;28;20109;-57
2022/09/01 10:48:37;;;;;;;1.08;0.55;;;;;;;36.49;32.34;101981.00;5069064;28;20033;-58
2022/09/01 10:51:11;;;;;;;6.28;1.17;;;;;;;36.62;31.43;101979.06;5073884;28;20048;-54
2022/09/01 10:53:41;;;;;;;7.38;1.13;;;;;;;36.87;30.00;101976.25;5071074;28;20071;-59
2022/09/01 10:56:37;;;;;;;1.88;0.80;;;;;;;36.72;31.04;101970.25;5070802;28;20033;-54
2022/09/01 10:59:22;;;;;;;5.97;1.23;;;;;;;37.01;29.48;101960.03;5074220;28;20032;-56
2022/09/01 11:01:48;;;;;;;5.47;0.93;;;;;;;37.31;29.01;101967.28;5074721;28;20056;-58
2022/09/01 11:04:16;;;;;;;8.15;1.20;;;;;;;37.12;28.42;101974.28;5075893;28;20032;-54
2022/09/01 11:07:05;;;;;;;3.17;0.90;;;;;;;37.75;28.25;101960.94;5082546;28;20029;-55
2022/09/01 11:09:33;;;;;;;3.70;0.90;;;;;;;37.67;27.89;101961.94;5074821;28;20044;-57
2022/09/01 11:12:10;;;;;;;1.92;0.70;;;;;;;38.24;26.92;101959.03;5083738;28;20041;-54
2022/09/01 11:14:49;;;;;;;1.85;0.90;;;;;;;38.28;28.07;101965.53;5077035;28;20049;-57
2022/09/01 11:17:18;;;;;;;2.15;0.88;;;;;;;38.26;26.40;101974.28;5075627;28;20041;-57
2022/09/01 11:20:08;;;;;;;4.35;0.77;;;;;;;38.41;26.17;101969.84;5075224;28;20063;-56
2022/09/01 11:22:55;;;;;;;7.93;0.88;;;;;;;38.44;26.14;101966.38;5073861;28;20029;-54
2022/09/01 11:25:42;;;;;;;7.13;0.80;;;;;;;38.70;28.17;101964.97;5075920;28;20066;-51
2022/09/01 11:28:14;;;;;;;2.20;0.70;;;;;;;39.12;25.30;101969.13;5073715;28;20034;-54
2022/09/01 11:30:53;;;;;;;2.25;0.75;;;;;;;39.34;25.81;101969.59;5074169;28;20056;-55
2022/09/01 11:33:33;;;;;;;3.38;0.60;;;;;;;39.32;25.24;101965.53;5073258;28;20037;-56
2022/09/01 11:36:06;;;;;;;1.38;0.60;;;;;;;39.39;24.48;101968.50;5076379;28;20251;-56
2022/09/01 11:39:01;;;;;;;1.38;0.50;;;;;;;39.26;26.19;101956.59;5075245;28;20029;-52
2022/09/01 11:41:45;;;;;;;4.35;0.75;;;;;;;39.29;24.54;101962.28;5064865;28;20045;-55
2022/09/01 11:44:43;;;;;;;8.30;1.10;;;;;;;39.90;26.25;101955.47;5074715;28;20033;-54
2022/09/01 11:47:15;;;;;;;2.10;0.70;;;;;;;40.22;23.30;101960.84;5051476;28;20048;-52